Terminal Aerodrome Forecast
Issued by NWS Aberdeen, SD

Home | Current Version | Previous Version | Text Only | Print | Product List | Glossary On
Versions: 1 2 3 4 5 6 7 8 9 10 11 12 13 14 15 16 17 18 19 20 21 22 23 24 25 26 27 28 29 30 31 32 33 34 35 36 37 38 39 40 41 42 43
000
FTAK31 PAFA 240742 AAA
TAFABR
TAF AMD
PABR 240742Z 2408/2506 22020KT 3SM -RA BR SCT005 OVC010
      TEMPO 2408/2410 1SM -RA BR BKN005
     FM241000 24015G25KT 1 1/2SM -RA BR BKN005 OVC015
     FM242000 28022G30KT 3SM -SHRA BR SCT007 OVC015
     FM250300 28015KT P6SM VCSH BKN015 OVC025=

USA.gov is the U.S. government's official web portal to all federal, state and local government web resources and services.